sensor_id;sensor_type;location;lat;lon;timestamp;temperature;humidity
35635;DHT22;21757;43.610;1.440;2024-01-07T00:00:09;6.60;99.90
35635;DHT22;21757;43.610;1.440;2024-01-07T00:02:34;6.50;99.90
35635;DHT22;21757;43.610;1.440;2024-01-07T00:05:01;6.50;99.90
35635;DHT22;21757;43.610;1.440;2024-01-07T00:07:27;6.50;99.90
35635;DHT22;21757;43.610;1.440;2024-01-07T00:09:53;6.50;99.90
35635;DHT22;21757;43.610;1.440;2024-01-07T00:12:19;6.50;99.90
35635;DHT22;21757;43.610;1.440;2024-01-07T00:14:45;6.40;99.90
35635;DHT22;21757;43.610;1.440;2024-01-07T00:17:10;6.50;99.90
35635;DHT22;21757;43.610;1.440;2024-01-07T00:19:36;6.40;99.90
35635;DHT22;21757;43.610;1.440;2024-01-07T00:22:03;6.30;99.90
35635;DHT22;21757;43.610;1.440;2024-01-07T00:24:29;6.30;99.90
35635;DHT22;21757;43.610;1.440;2024-01-07T00:26:55;6.30;99.90
35635;DHT22;21757;43.610;1.440;2024-01-07T00:29:21;6.30;99.90
35635;DHT22;21757;43.610;1.440;2024-01-07T00:31:46;6.30;99.90
35635;DHT22;21757;43.610;1.440;2024-01-07T00:34:12;6.40;99.90
35635;DHT22;21757;43.610;1.440;2024-01-07T00:36:38;6.40;99.90
35635;DHT22;21757;43.610;1.440;2024-01-07T00:39:03;6.40;99.90
35635;DHT22;21757;43.610;1.440;2024-01-07T00:41:29;6.40;99.90
35635;DHT22;21757;43.610;1.440;2024-01-07T00:43:58;6.40;99.90
35635;DHT22;21757;43.610;1.440;2024-01-07T00:46:23;6.40;99.90
35635;DHT22;21757;43.610;1.440;2024-01-07T00:48:49;6.40;99.90
35635;DHT22;21757;43.610;1.440;2024-01-07T00:51:15;6.40;99.90
35635;DHT22;21757;43.610;1.440;2024-01-07T00:53:40;6.40;99.90
35635;DHT22;21757;43.610;1.440;2024-01-07T00:56:06;6.40;99.90
35635;DHT22;21757;43.610;1.440;2024-01-07T00:58:32;6.40;99.90
35635;DHT22;21757;43.610;1.440;2024-01-07T01:00:58;6.40;99.90
35635;DHT22;21757;43.610;1.440;2024-01-07T01:03:25;6.30;99.90
35635;DHT22;21757;43.610;1.440;2024-01-07T01:05:51;6.30;99.90
35635;DHT22;21757;43.610;1.440;2024-01-07T01:08:17;6.30;99.90
35635;DHT22;21757;43.610;1.440;2024-01-07T01:10:43;6.30;99.90
35635;DHT22;21757;43.610;1.440;2024-01-07T01:13:08;6.30;99.90
35635;DHT22;21757;43.610;1.440;2024-01-07T01:15:34;6.40;99.90
35635;DHT22;21757;43.610;1.440;2024-01-07T01:18:00;6.40;99.90
35635;DHT22;21757;43.610;1.440;2024-01-07T01:20:26;6.40;99.90
35635;DHT22;21757;43.610;1.440;2024-01-07T01:22:51;6.30;99.90
35635;DHT22;21757;43.610;1.440;2024-01-07T01:25:17;6.30;99.90
35635;DHT22;21757;43.610;1.440;2024-01-07T01:27:43;6.30;99.90
35635;DHT22;21757;43.610;1.440;2024-01-07T01:30:10;6.40;99.90
35635;DHT22;21757;43.610;1.440;2024-01-07T01:32:36;6.30;99.90
35635;DHT22;21757;43.610;1.440;2024-01-07T01:35:01;6.30;99.90
35635;DHT22;21757;43.610;1.440;2024-01-07T01:37:27;6.30;99.90
35635;DHT22;21757;43.610;1.440;2024-01-07T01:39:53;6.30;99.90
35635;DHT22;21757;43.610;1.440;2024-01-07T01:42:18;6.30;99.90
35635;DHT22;21757;43.610;1.440;2024-01-07T01:44:45;6.30;99.90
35635;DHT22;21757;43.610;1.440;2024-01-07T01:47:11;6.30;99.90
35635;DHT22;21757;43.610;1.440;2024-01-07T01:49:37;6.30;99.90
35635;DHT22;21757;43.610;1.440;2024-01-07T01:52:04;6.30;99.90
35635;DHT22;21757;43.610;1.440;2024-01-07T01:54:33;6.40;99.90
35635;DHT22;21757;43.610;1.440;2024-01-07T01:56:59;6.40;99.90
35635;DHT22;21757;43.610;1.440;2024-01-07T01:59:25;6.40;99.90
35635;DHT22;21757;43.610;1.440;2024-01-07T02:01:51;6.30;99.90
35635;DHT22;21757;43.610;1.440;2024-01-07T02:04:17;6.30;99.90
35635;DHT22;21757;43.610;1.440;2024-01-07T02:06:45;6.30;99.90
35635;DHT22;21757;43.610;1.440;2024-01-07T02:09:11;6.30;99.90
35635;DHT22;21757;43.610;1.440;2024-01-07T02:11:36;6.30;99.90
35635;DHT22;21757;43.610;1.440;2024-01-07T02:14:02;6.20;99.90
35635;DHT22;21757;43.610;1.440;2024-01-07T02:16:28;6.10;99.90
35635;DHT22;21757;43.610;1.440;2024-01-07T02:18:53;6.10;99.90
35635;DHT22;21757;43.610;1.440;2024-01-07T02:21:19;6.10;99.90
35635;DHT22;21757;43.610;1.440;2024-01-07T02:23:44;6.10;99.90
35635;DHT22;21757;43.610;1.440;2024-01-07T02:26:10;6.10;99.90
35635;DHT22;21757;43.610;1.440;2024-01-07T02:28:36;6.20;99.90
35635;DHT22;21757;43.610;1.440;2024-01-07T02:31:01;6.20;99.90
35635;DHT22;21757;43.610;1.440;2024-01-07T02:33:27;6.10;99.90
35635;DHT22;21757;43.610;1.440;2024-01-07T02:35:53;6.20;99.90
35635;DHT22;21757;43.610;1.440;2024-01-07T02:38:19;6.20;99.90
35635;DHT22;21757;43.610;1.440;2024-01-07T02:40:44;6.20;99.90
35635;DHT22;21757;43.610;1.440;2024-01-07T02:43:10;6.10;99.90
35635;DHT22;21757;43.610;1.440;2024-01-07T02:45:36;6.10;99.90
35635;DHT22;21757;43.610;1.440;2024-01-07T02:48:01;6.10;99.90
35635;DHT22;21757;43.610;1.440;2024-01-07T02:50:27;6.10;99.90
35635;DHT22;21757;43.610;1.440;2024-01-07T02:52:53;6.10;99.90
35635;DHT22;21757;43.610;1.440;2024-01-07T02:55:20;6.00;99.90
35635;DHT22;21757;43.610;1.440;2024-01-07T02:57:45;6.10;99.90
35635;DHT22;21757;43.610;1.440;2024-01-07T03:00:11;6.10;99.90
35635;DHT22;21757;43.610;1.440;2024-01-07T03:02:37;6.10;99.90
35635;DHT22;21757;43.610;1.440;2024-01-07T03:05:03;6.10;99.90
35635;DHT22;21757;43.610;1.440;2024-01-07T03:07:29;6.00;99.90
35635;DHT22;21757;43.610;1.440;2024-01-07T03:09:54;6.00;99.90
35635;DHT22;21757;43.610;1.440;2024-01-07T03:12:20;6.00;99.90
35635;DHT22;21757;43.610;1.440;2024-01-07T03:14:46;6.00;99.90
35635;DHT22;21757;43.610;1.440;2024-01-07T03:17:11;6.00;99.90
35635;DHT22;21757;43.610;1.440;2024-01-07T03:19:38;6.00;99.90
35635;DHT22;21757;43.610;1.440;2024-01-07T03:22:04;6.00;99.90
35635;DHT22;21757;43.610;1.440;2024-01-07T03:24:31;5.90;99.90
35635;DHT22;21757;43.610;1.440;2024-01-07T03:26:56;5.90;99.90
35635;DHT22;21757;43.610;1.440;2024-01-07T03:29:22;5.90;99.90
35635;DHT22;21757;43.610;1.440;2024-01-07T03:31:48;6.00;99.90
35635;DHT22;21757;43.610;1.440;2024-01-07T03:34:13;6.00;99.90
35635;DHT22;21757;43.610;1.440;2024-01-07T03:36:39;6.00;99.90
35635;DHT22;21757;43.610;1.440;2024-01-07T03:39:04;6.00;99.90
35635;DHT22;21757;43.610;1.440;2024-01-07T03:41:30;5.90;99.90
35635;DHT22;21757;43.610;1.440;2024-01-07T03:43:56;5.90;99.90
35635;DHT22;21757;43.610;1.440;2024-01-07T03:46:22;5.90;99.90
35635;DHT22;21757;43.610;1.440;2024-01-07T03:48:48;6.00;99.90
35635;DHT22;21757;43.610;1.440;2024-01-07T03:51:13;5.90;99.90
35635;DHT22;21757;43.610;1.440;2024-01-07T03:53:39;5.90;99.90
35635;DHT22;21757;43.610;1.440;2024-01-07T03:56:05;5.90;99.90
35635;DHT22;21757;43.610;1.440;2024-01-07T03:58:31;5.80;99.90
35635;DHT22;21757;43.610;1.440;2024-01-07T04:00:56;5.80;99.90
35635;DHT22;21757;43.610;1.440;2024-01-07T04:03:22;5.80;99.90
35635;DHT22;21757;43.610;1.440;2024-01-07T04:05:48;5.80;99.90
35635;DHT22;21757;43.610;1.440;2024-01-07T04:08:13;5.90;99.90
35635;DHT22;21757;43.610;1.440;2024-01-07T04:10:41;5.80;99.90
35635;DHT22;21757;43.610;1.440;2024-01-07T04:13:07;5.80;99.90
35635;DHT22;21757;43.610;1.440;2024-01-07T04:15:33;5.80;99.90
35635;DHT22;21757;43.610;1.440;2024-01-07T04:18:03;5.80;99.90
35635;DHT22;21757;43.610;1.440;2024-01-07T04:20:29;5.80;99.90
35635;DHT22;21757;43.610;1.440;2024-01-07T04:22:55;5.90;99.90
35635;DHT22;21757;43.610;1.440;2024-01-07T04:25:20;5.80;99.90
35635;DHT22;21757;43.610;1.440;2024-01-07T04:27:46;5.90;99.90
35635;DHT22;21757;43.610;1.440;2024-01-07T04:30:12;5.80;99.90
35635;DHT22;21757;43.610;1.440;2024-01-07T04:32:38;5.80;99.90
35635;DHT22;21757;43.610;1.440;2024-01-07T04:35:03;5.80;99.90
35635;DHT22;21757;43.610;1.440;2024-01-07T04:37:29;5.80;99.90
35635;DHT22;21757;43.610;1.440;2024-01-07T04:39:55;5.80;99.90
35635;DHT22;21757;43.610;1.440;2024-01-07T04:42:20;5.80;99.90
35635;DHT22;21757;43.610;1.440;2024-01-07T04:44:46;5.70;99.90
35635;DHT22;21757;43.610;1.440;2024-01-07T04:47:31;5.60;99.90
35635;DHT22;21757;43.610;1.440;2024-01-07T04:49:59;5.60;99.90
35635;DHT22;21757;43.610;1.440;2024-01-07T04:52:25;5.60;99.90
35635;DHT22;21757;43.610;1.440;2024-01-07T04:54:55;5.70;99.90
35635;DHT22;21757;43.610;1.440;2024-01-07T04:57:21;5.70;99.90
35635;DHT22;21757;43.610;1.440;2024-01-07T04:59:50;5.70;99.90
35635;DHT22;21757;43.610;1.440;2024-01-07T05:02:16;5.70;99.90
35635;DHT22;21757;43.610;1.440;2024-01-07T05:04:42;5.60;99.90
35635;DHT22;21757;43.610;1.440;2024-01-07T05:07:08;5.70;99.90
35635;DHT22;21757;43.610;1.440;2024-01-07T05:09:33;5.70;99.90
35635;DHT22;21757;43.610;1.440;2024-01-07T05:12:00;5.70;99.90
35635;DHT22;21757;43.610;1.440;2024-01-07T05:14:25;5.70;99.90
35635;DHT22;21757;43.610;1.440;2024-01-07T05:16:52;5.60;99.90
35635;DHT22;21757;43.610;1.440;2024-01-07T05:19:18;5.60;99.90
35635;DHT22;21757;43.610;1.440;2024-01-07T05:21:43;5.70;99.90
35635;DHT22;21757;43.610;1.440;2024-01-07T05:24:09;5.70;99.90
35635;DHT22;21757;43.610;1.440;2024-01-07T05:26:39;5.60;99.90
35635;DHT22;21757;43.610;1.440;2024-01-07T05:29:05;5.60;99.90
35635;DHT22;21757;43.610;1.440;2024-01-07T05:31:31;5.60;99.90
35635;DHT22;21757;43.610;1.440;2024-01-07T05:33:57;5.60;99.90
35635;DHT22;21757;43.610;1.440;2024-01-07T05:36:22;5.70;99.90
35635;DHT22;21757;43.610;1.440;2024-01-07T05:38:48;5.60;99.90
35635;DHT22;21757;43.610;1.440;2024-01-07T05:41:13;5.50;99.90
35635;DHT22;21757;43.610;1.440;2024-01-07T05:43:39;5.40;99.90
35635;DHT22;21757;43.610;1.440;2024-01-07T05:46:05;5.50;99.90
35635;DHT22;21757;43.610;1.440;2024-01-07T05:48:41;5.50;99.90
35635;DHT22;21757;43.610;1.440;2024-01-07T05:51:07;5.50;99.90
35635;DHT22;21757;43.610;1.440;2024-01-07T05:53:34;5.50;99.90
35635;DHT22;21757;43.610;1.440;2024-01-07T05:56:00;5.40;99.90
35635;DHT22;21757;43.610;1.440;2024-01-07T05:58:25;5.50;99.90
35635;DHT22;21757;43.610;1.440;2024-01-07T06:00:51;5.50;99.90
35635;DHT22;21757;43.610;1.440;2024-01-07T06:03:17;5.40;99.90
35635;DHT22;21757;43.610;1.440;2024-01-07T06:05:43;5.50;99.90
35635;DHT22;21757;43.610;1.440;2024-01-07T06:08:09;5.40;99.90
35635;DHT22;21757;43.610;1.440;2024-01-07T06:10:35;5.40;99.90
35635;DHT22;21757;43.610;1.440;2024-01-07T06:13:01;5.40;99.90
35635;DHT22;21757;43.610;1.440;2024-01-07T06:15:29;5.40;99.90
35635;DHT22;21757;43.610;1.440;2024-01-07T06:17:54;5.30;99.90
35635;DHT22;21757;43.610;1.440;2024-01-07T06:20:20;5.40;99.90
35635;DHT22;21757;43.610;1.440;2024-01-07T06:22:46;5.40;99.90
35635;DHT22;21757;43.610;1.440;2024-01-07T06:25:12;5.40;99.90
35635;DHT22;21757;43.610;1.440;2024-01-07T06:27:38;5.40;99.90
35635;DHT22;21757;43.610;1.440;2024-01-07T06:30:05;5.40;99.90
35635;DHT22;21757;43.610;1.440;2024-01-07T06:32:31;5.40;99.90
35635;DHT22;21757;43.610;1.440;2024-01-07T06:35:00;5.30;99.90
35635;DHT22;21757;43.610;1.440;2024-01-07T06:37:26;5.40;99.90
35635;DHT22;21757;43.610;1.440;2024-01-07T06:39:56;5.30;99.90
35635;DHT22;21757;43.610;1.440;2024-01-07T06:42:22;5.40;99.90
35635;DHT22;21757;43.610;1.440;2024-01-07T06:44:47;5.40;99.90
35635;DHT22;21757;43.610;1.440;2024-01-07T06:47:13;5.30;99.90
35635;DHT22;21757;43.610;1.440;2024-01-07T06:49:39;5.30;99.90
35635;DHT22;21757;43.610;1.440;2024-01-07T06:52:05;5.40;99.90
35635;DHT22;21757;43.610;1.440;2024-01-07T06:54:31;5.30;99.90
35635;DHT22;21757;43.610;1.440;2024-01-07T06:56:56;5.30;99.90
35635;DHT22;21757;43.610;1.440;2024-01-07T06:59:22;5.30;99.90
35635;DHT22;21757;43.610;1.440;2024-01-07T07:01:48;5.30;99.90
35635;DHT22;21757;43.610;1.440;2024-01-07T07:04:13;5.40;99.90
35635;DHT22;21757;43.610;1.440;2024-01-07T07:06:39;5.40;99.90
35635;DHT22;21757;43.610;1.440;2024-01-07T07:09:05;5.40;99.90
35635;DHT22;21757;43.610;1.440;2024-01-07T07:11:31;5.50;99.90
35635;DHT22;21757;43.610;1.440;2024-01-07T07:13:57;5.50;99.90
35635;DHT22;21757;43.610;1.440;2024-01-07T07:16:23;5.40;99.90
35635;DHT22;21757;43.610;1.440;2024-01-07T07:18:48;5.40;99.90
35635;DHT22;21757;43.610;1.440;2024-01-07T07:21:14;5.40;99.90
35635;DHT22;21757;43.610;1.440;2024-01-07T07:23:40;5.30;99.90
35635;DHT22;21757;43.610;1.440;2024-01-07T07:26:05;5.40;99.90
35635;DHT22;21757;43.610;1.440;2024-01-07T07:28:32;5.40;99.90
35635;DHT22;21757;43.610;1.440;2024-01-07T07:30:58;5.40;99.90
35635;DHT22;21757;43.610;1.440;2024-01-07T07:33:23;5.40;99.90
35635;DHT22;21757;43.610;1.440;2024-01-07T07:35:49;5.30;99.90
35635;DHT22;21757;43.610;1.440;2024-01-07T07:38:15;5.40;99.90
35635;DHT22;21757;43.610;1.440;2024-01-07T07:40:41;5.30;99.90
35635;DHT22;21757;43.610;1.440;2024-01-07T07:43:08;5.30;99.90
35635;DHT22;21757;43.610;1.440;2024-01-07T07:45:33;5.30;99.90
35635;DHT22;21757;43.610;1.440;2024-01-07T07:47:59;5.40;99.90
35635;DHT22;21757;43.610;1.440;2024-01-07T07:50:25;5.40;99.90
35635;DHT22;21757;43.610;1.440;2024-01-07T07:52:51;5.40;99.90
35635;DHT22;21757;43.610;1.440;2024-01-07T07:55:16;5.30;99.90
35635;DHT22;21757;43.610;1.440;2024-01-07T07:57:42;5.30;99.90
35635;DHT22;21757;43.610;1.440;2024-01-07T08:00:08;5.30;99.90
35635;DHT22;21757;43.610;1.440;2024-01-07T08:02:38;5.40;99.90
35635;DHT22;21757;43.610;1.440;2024-01-07T08:05:04;5.30;99.90
35635;DHT22;21757;43.610;1.440;2024-01-07T08:07:30;5.30;99.90
35635;DHT22;21757;43.610;1.440;2024-01-07T08:09:55;5.30;99.90
35635;DHT22;21757;43.610;1.440;2024-01-07T08:12:23;5.30;99.90
35635;DHT22;21757;43.610;1.440;2024-01-07T08:14:48;5.30;99.90
35635;DHT22;21757;43.610;1.440;2024-01-07T08:17:14;5.30;99.90
35635;DHT22;21757;43.610;1.440;2024-01-07T08:19:40;5.30;99.90
35635;DHT22;21757;43.610;1.440;2024-01-07T08:22:06;5.40;99.90
35635;DHT22;21757;43.610;1.440;2024-01-07T08:24:31;5.40;99.90
35635;DHT22;21757;43.610;1.440;2024-01-07T08:26:57;5.40;99.90
35635;DHT22;21757;43.610;1.440;2024-01-07T08:29:23;5.50;99.90
35635;DHT22;21757;43.610;1.440;2024-01-07T08:31:48;5.50;99.90
35635;DHT22;21757;43.610;1.440;2024-01-07T08:34:14;5.50;99.90
35635;DHT22;21757;43.610;1.440;2024-01-07T08:36:41;5.50;99.90
35635;DHT22;21757;43.610;1.440;2024-01-07T08:39:07;5.60;99.90
35635;DHT22;21757;43.610;1.440;2024-01-07T08:41:33;5.50;99.90
35635;DHT22;21757;43.610;1.440;2024-01-07T08:43:59;5.40;99.90
35635;DHT22;21757;43.610;1.440;2024-01-07T08:46:25;5.20;99.90
35635;DHT22;21757;43.610;1.440;2024-01-07T08:48:50;5.10;99.90
35635;DHT22;21757;43.610;1.440;2024-01-07T08:51:17;5.00;99.90
35635;DHT22;21757;43.610;1.440;2024-01-07T08:53:44;5.10;99.90
35635;DHT22;21757;43.610;1.440;2024-01-07T08:56:09;5.00;99.90
35635;DHT22;21757;43.610;1.440;2024-01-07T08:58:35;5.00;99.90
35635;DHT22;21757;43.610;1.440;2024-01-07T09:01:02;4.90;99.90
35635;DHT22;21757;43.610;1.440;2024-01-07T09:03:28;4.90;99.90
35635;DHT22;21757;43.610;1.440;2024-01-07T09:05:54;5.00;99.90
35635;DHT22;21757;43.610;1.440;2024-01-07T09:08:19;5.30;99.90
35635;DHT22;21757;43.610;1.440;2024-01-07T09:10:45;5.50;99.90
35635;DHT22;21757;43.610;1.440;2024-01-07T09:13:11;5.50;99.90
35635;DHT22;21757;43.610;1.440;2024-01-07T09:15:36;5.40;99.90
35635;DHT22;21757;43.610;1.440;2024-01-07T09:18:02;5.50;99.90
35635;DHT22;21757;43.610;1.440;2024-01-07T09:20:28;5.60;99.90
35635;DHT22;21757;43.610;1.440;2024-01-07T09:22:54;5.60;99.90
35635;DHT22;21757;43.610;1.440;2024-01-07T09:25:19;5.40;99.90
35635;DHT22;21757;43.610;1.440;2024-01-07T09:27:45;5.10;99.90
35635;DHT22;21757;43.610;1.440;2024-01-07T09:30:11;5.00;99.90
35635;DHT22;21757;43.610;1.440;2024-01-07T09:32:43;5.10;99.90
35635;DHT22;21757;43.610;1.440;2024-01-07T09:35:09;5.30;99.90
35635;DHT22;21757;43.610;1.440;2024-01-07T09:37:35;5.50;99.90
35635;DHT22;21757;43.610;1.440;2024-01-07T09:40:01;5.40;99.90
35635;DHT22;21757;43.610;1.440;2024-01-07T09:42:27;5.40;99.90
35635;DHT22;21757;43.610;1.440;2024-01-07T09:44:53;5.20;99.90
35635;DHT22;21757;43.610;1.440;2024-01-07T09:47:19;5.20;99.90
35635;DHT22;21757;43.610;1.440;2024-01-07T09:49:46;5.20;99.90
35635;DHT22;21757;43.610;1.440;2024-01-07T09:52:12;5.40;99.90
35635;DHT22;21757;43.610;1.440;2024-01-07T09:54:39;5.60;99.90
35635;DHT22;21757;43.610;1.440;2024-01-07T09:57:06;5.80;99.90
35635;DHT22;21757;43.610;1.440;2024-01-07T09:59:33;5.90;99.90
35635;DHT22;21757;43.610;1.440;2024-01-07T10:01:59;5.90;99.90
35635;DHT22;21757;43.610;1.440;2024-01-07T10:04:26;5.80;99.90
35635;DHT22;21757;43.610;1.440;2024-01-07T10:06:53;5.90;99.90
35635;DHT22;21757;43.610;1.440;2024-01-07T10:09:22;6.00;99.90
35635;DHT22;21757;43.610;1.440;2024-01-07T10:11:49;6.00;99.90
35635;DHT22;21757;43.610;1.440;2024-01-07T10:14:15;5.90;99.90
35635;DHT22;21757;43.610;1.440;2024-01-07T10:16:41;6.10;99.90
35635;DHT22;21757;43.610;1.440;2024-01-07T10:19:07;6.10;99.90
35635;DHT22;21757;43.610;1.440;2024-01-07T10:21:33;6.10;99.90
35635;DHT22;21757;43.610;1.440;2024-01-07T10:24:12;6.10;99.90
35635;DHT22;21757;43.610;1.440;2024-01-07T10:26:39;6.10;99.90
35635;DHT22;21757;43.610;1.440;2024-01-07T10:29:05;6.10;99.90
35635;DHT22;21757;43.610;1.440;2024-01-07T10:31:35;6.30;99.90
35635;DHT22;21757;43.610;1.440;2024-01-07T10:34:00;6.40;99.90
35635;DHT22;21757;43.610;1.440;2024-01-07T10:36:26;6.40;99.90
35635;DHT22;21757;43.610;1.440;2024-01-07T10:38:53;6.40;99.90
35635;DHT22;21757;43.610;1.440;2024-01-07T10:41:20;6.30;99.90
35635;DHT22;21757;43.610;1.440;2024-01-07T10:43:49;6.30;99.90
35635;DHT22;21757;43.610;1.440;2024-01-07T10:46:15;6.30;99.90
35635;DHT22;21757;43.610;1.440;2024-01-07T10:49:04;6.30;99.90
35635;DHT22;21757;43.610;1.440;2024-01-07T10:51:34;6.00;99.90
35635;DHT22;21757;43.610;1.440;2024-01-07T10:54:00;6.10;99.90
35635;DHT22;21757;43.610;1.440;2024-01-07T10:56:33;6.10;99.90
35635;DHT22;21757;43.610;1.440;2024-01-07T10:59:04;5.90;99.90
35635;DHT22;21757;43.610;1.440;2024-01-07T11:01:29;5.90;99.90
35635;DHT22;21757;43.610;1.440;2024-01-07T11:04:01;6.00;99.90
35635;DHT22;21757;43.610;1.440;2024-01-07T11:06:45;6.00;99.90
35635;DHT22;21757;43.610;1.440;2024-01-07T11:09:21;6.00;99.90
35635;DHT22;21757;43.610;1.440;2024-01-07T11:11:50;6.00;99.90
35635;DHT22;21757;43.610;1.440;2024-01-07T11:14:40;5.90;99.90
35635;DHT22;21757;43.610;1.440;2024-01-07T11:17:08;6.10;99.90
35635;DHT22;21757;43.610;1.440;2024-01-07T11:19:37;6.10;99.90
35635;DHT22;21757;43.610;1.440;2024-01-07T11:22:25;6.00;99.90
35635;DHT22;21757;43.610;1.440;2024-01-07T11:24:57;6.00;99.90
35635;DHT22;21757;43.610;1.440;2024-01-07T11:27:29;6.00;99.90
35635;DHT22;21757;43.610;1.440;2024-01-07T11:30:18;5.90;99.90
35635;DHT22;21757;43.610;1.440;2024-01-07T11:32:44;5.90;99.90
35635;DHT22;21757;43.610;1.440;2024-01-07T11:35:13;5.90;99.90
35635;DHT22;21757;43.610;1.440;2024-01-07T11:37:41;5.90;99.90
35635;DHT22;21757;43.610;1.440;2024-01-07T11:40:08;6.00;99.90
35635;DHT22;21757;43.610;1.440;2024-01-07T11:42:33;6.20;99.90
35635;DHT22;21757;43.610;1.440;2024-01-07T11:44:59;6.00;99.90
35635;DHT22;21757;43.610;1.440;2024-01-07T11:47:25;6.10;99.90
35635;DHT22;21757;43.610;1.440;2024-01-07T11:49:53;6.00;99.90
35635;DHT22;21757;43.610;1.440;2024-01-07T11:52:20;6.20;99.90
35635;DHT22;21757;43.610;1.440;2024-01-07T11:54:47;6.20;99.90
35635;DHT22;21757;43.610;1.440;2024-01-07T11:57:13;6.00;99.90
35635;DHT22;21757;43.610;1.440;2024-01-07T11:59:39;6.00;99.90
35635;DHT22;21757;43.610;1.440;2024-01-07T12:02:05;6.30;99.90
35635;DHT22;21757;43.610;1.440;2024-01-07T12:04:31;6.20;99.90
35635;DHT22;21757;43.610;1.440;2024-01-07T12:06:57;6.10;99.90
35635;DHT22;21757;43.610;1.440;2024-01-07T12:09:24;6.00;99.90
35635;DHT22;21757;43.610;1.440;2024-01-07T12:11:49;6.20;99.90
35635;DHT22;21757;43.610;1.440;2024-01-07T12:14:16;6.30;99.90
35635;DHT22;21757;43.610;1.440;2024-01-07T12:16:42;6.30;99.90
35635;DHT22;21757;43.610;1.440;2024-01-07T12:19:11;6.30;99.90
35635;DHT22;21757;43.610;1.440;2024-01-07T12:21:37;6.20;99.90
35635;DHT22;21757;43.610;1.440;2024-01-07T12:24:04;6.10;99.90
35635;DHT22;21757;43.610;1.440;2024-01-07T12:26:30;6.20;99.90
35635;DHT22;21757;43.610;1.440;2024-01-07T12:28:59;6.20;99.90
35635;DHT22;21757;43.610;1.440;2024-01-07T12:31:34;6.10;99.90
35635;DHT22;21757;43.610;1.440;2024-01-07T12:34:02;6.30;99.90
35635;DHT22;21757;43.610;1.440;2024-01-07T12:36:29;6.20;99.90
35635;DHT22;21757;43.610;1.440;2024-01-07T12:38:55;6.20;99.90
35635;DHT22;21757;43.610;1.440;2024-01-07T12:41:21;6.20;99.90
35635;DHT22;21757;43.610;1.440;2024-01-07T12:43:48;6.30;99.90
35635;DHT22;21757;43.610;1.440;2024-01-07T12:46:15;6.10;99.90
35635;DHT22;21757;43.610;1.440;2024-01-07T12:48:41;6.10;99.90
35635;DHT22;21757;43.610;1.440;2024-01-07T12:51:07;6.10;99.90
35635;DHT22;21757;43.610;1.440;2024-01-07T12:53:33;6.20;99.90
35635;DHT22;21757;43.610;1.440;2024-01-07T12:55:59;6.20;99.90
35635;DHT22;21757;43.610;1.440;2024-01-07T12:58:24;6.30;99.90
35635;DHT22;21757;43.610;1.440;2024-01-07T13:00:50;6.30;99.90
35635;DHT22;21757;43.610;1.440;2024-01-07T13:03:16;6.50;99.90
35635;DHT22;21757;43.610;1.440;2024-01-07T13:05:45;6.50;99.90
35635;DHT22;21757;43.610;1.440;2024-01-07T13:08:12;6.40;99.90
35635;DHT22;21757;43.610;1.440;2024-01-07T13:10:40;6.30;99.90
35635;DHT22;21757;43.610;1.440;2024-01-07T13:13:06;6.10;99.90
35635;DHT22;21757;43.610;1.440;2024-01-07T13:15:32;6.10;99.90
35635;DHT22;21757;43.610;1.440;2024-01-07T13:17:58;6.30;99.90
35635;DHT22;21757;43.610;1.440;2024-01-07T13:20:24;6.20;99.90
35635;DHT22;21757;43.610;1.440;2024-01-07T13:22:50;6.10;99.90
35635;DHT22;21757;43.610;1.440;2024-01-07T13:25:15;6.20;99.90
35635;DHT22;21757;43.610;1.440;2024-01-07T13:27:41;6.20;99.90
35635;DHT22;21757;43.610;1.440;2024-01-07T13:30:10;6.20;99.90
35635;DHT22;21757;43.610;1.440;2024-01-07T13:32:36;6.10;99.90
35635;DHT22;21757;43.610;1.440;2024-01-07T13:35:03;6.10;99.90
35635;DHT22;21757;43.610;1.440;2024-01-07T13:37:29;6.00;99.90
35635;DHT22;21757;43.610;1.440;2024-01-07T13:39:56;6.10;99.90
35635;DHT22;21757;43.610;1.440;2024-01-07T13:42:24;6.10;99.90
35635;DHT22;21757;43.610;1.440;2024-01-07T13:44:50;5.90;99.90
35635;DHT22;21757;43.610;1.440;2024-01-07T13:47:16;5.90;99.90
35635;DHT22;21757;43.610;1.440;2024-01-07T13:49:42;5.80;99.90
35635;DHT22;21757;43.610;1.440;2024-01-07T13:52:07;5.80;99.90
35635;DHT22;21757;43.610;1.440;2024-01-07T13:54:33;5.80;99.90
35635;DHT22;21757;43.610;1.440;2024-01-07T13:56:59;5.80;99.90
35635;DHT22;21757;43.610;1.440;2024-01-07T13:59:25;5.70;99.90
35635;DHT22;21757;43.610;1.440;2024-01-07T14:01:52;5.80;99.90
35635;DHT22;21757;43.610;1.440;2024-01-07T14:04:18;5.80;99.90
35635;DHT22;21757;43.610;1.440;2024-01-07T14:06:44;5.80;99.90
35635;DHT22;21757;43.610;1.440;2024-01-07T14:09:12;5.80;99.90
35635;DHT22;21757;43.610;1.440;2024-01-07T14:11:40;5.70;99.90
35635;DHT22;21757;43.610;1.440;2024-01-07T14:14:07;5.70;99.90
35635;DHT22;21757;43.610;1.440;2024-01-07T14:16:32;5.70;99.90
35635;DHT22;21757;43.610;1.440;2024-01-07T14:18:58;5.90;99.90
35635;DHT22;21757;43.610;1.440;2024-01-07T14:21:23;6.00;99.90
35635;DHT22;21757;43.610;1.440;2024-01-07T14:23:50;6.00;99.90
35635;DHT22;21757;43.610;1.440;2024-01-07T14:26:17;6.00;99.90
35635;DHT22;21757;43.610;1.440;2024-01-07T14:28:48;5.90;99.90
35635;DHT22;21757;43.610;1.440;2024-01-07T14:31:14;6.00;99.90
35635;DHT22;21757;43.610;1.440;2024-01-07T14:33:40;6.00;99.90
35635;DHT22;21757;43.610;1.440;2024-01-07T14:36:06;6.00;99.90
35635;DHT22;21757;43.610;1.440;2024-01-07T14:38:34;6.00;99.90
35635;DHT22;21757;43.610;1.440;2024-01-07T14:41:00;6.10;99.90
35635;DHT22;21757;43.610;1.440;2024-01-07T14:43:25;6.10;99.90
35635;DHT22;21757;43.610;1.440;2024-01-07T14:45:51;6.10;99.90
35635;DHT22;21757;43.610;1.440;2024-01-07T14:48:17;6.10;99.90
35635;DHT22;21757;43.610;1.440;2024-01-07T14:50:42;6.00;99.90
35635;DHT22;21757;43.610;1.440;2024-01-07T14:53:13;6.00;99.90
35635;DHT22;21757;43.610;1.440;2024-01-07T14:55:38;6.00;99.90
35635;DHT22;21757;43.610;1.440;2024-01-07T14:58:04;5.90;99.90
35635;DHT22;21757;43.610;1.440;2024-01-07T15:00:30;6.00;99.90
35635;DHT22;21757;43.610;1.440;2024-01-07T15:02:56;6.00;99.90
35635;DHT22;21757;43.610;1.440;2024-01-07T15:05:21;6.00;99.90
35635;DHT22;21757;43.610;1.440;2024-01-07T15:07:47;6.00;99.90
35635;DHT22;21757;43.610;1.440;2024-01-07T15:10:17;6.00;99.90
35635;DHT22;21757;43.610;1.440;2024-01-07T15:12:46;6.00;99.90
35635;DHT22;21757;43.610;1.440;2024-01-07T15:15:14;6.00;99.90
35635;DHT22;21757;43.610;1.440;2024-01-07T15:17:40;5.90;99.90
35635;DHT22;21757;43.610;1.440;2024-01-07T15:20:06;5.90;99.90
35635;DHT22;21757;43.610;1.440;2024-01-07T15:22:32;5.90;99.90
35635;DHT22;21757;43.610;1.440;2024-01-07T15:24:58;5.90;99.90
35635;DHT22;21757;43.610;1.440;2024-01-07T15:27:24;5.90;99.90
35635;DHT22;21757;43.610;1.440;2024-01-07T15:29:50;5.90;99.90
35635;DHT22;21757;43.610;1.440;2024-01-07T15:32:15;5.80;99.90
35635;DHT22;21757;43.610;1.440;2024-01-07T15:34:41;5.90;99.90
35635;DHT22;21757;43.610;1.440;2024-01-07T15:37:07;5.90;99.90
35635;DHT22;21757;43.610;1.440;2024-01-07T15:39:33;5.90;99.90